Time;durP1;ratioP1;P1;durP2;ratioP2;P2;SDS_P1;SDS_P2;PMS_P1;PMS_P2;Temp;Humidity;BMP_temperature;BMP_pressure;BME280_temperature;BME280_humidity;BME280_pressure;Samples;Min_cycle;Max_cycle;Signal;HPM_P1;HPM_P2
2024/02/03 00:05:08;;;;;;;9.35;4.22;;;;;;;11.78;100.00;101721.81;10565234;27;20055;-78
2024/02/03 00:10:33;;;;;;;6.63;4.78;;;;;;;11.75;100.00;101731.44;10548515;28;20043;-78
2024/02/03 00:15:58;;;;;;;6.60;5.03;;;;;;;11.71;100.00;101727.75;10546909;28;20206;-78
2024/02/03 00:21:21;;;;;;;9.85;4.38;;;;;;;11.55;100.00;101721.16;10574400;28;20047;-78
2024/02/03 00:26:46;;;;;;;8.38;3.47;;;;;;;11.63;100.00;101724.00;10536089;28;20055;-78
2024/02/03 00:32:08;;;;;;;6.25;3.40;;;;;;;11.69;100.00;101717.97;10553329;28;20043;-78
2024/02/03 00:37:31;;;;;;;5.68;3.25;;;;;;;11.63;100.00;101718.72;10562640;28;20144;-78
2024/02/03 00:42:55;;;;;;;7.93;3.40;;;;;;;11.40;100.00;101719.88;10524100;28;20450;-78
2024/02/03 00:48:18;;;;;;;5.72;3.60;;;;;;;11.40;100.00;101723.41;10562744;28;20040;-78
2024/02/03 00:53:41;;;;;;;8.15;3.85;;;;;;;11.51;100.00;101724.59;10575563;28;20052;-77
2024/02/03 00:59:05;;;;;;;7.20;3.70;;;;;;;11.51;100.00;101731.63;10564500;28;20054;-78
2024/02/03 01:04:28;;;;;;;7.80;3.88;;;;;;;11.63;100.00;101716.06;10548976;28;20035;-78
2024/02/03 01:09:50;;;;;;;9.43;3.55;;;;;;;11.98;100.00;101720.56;10547092;28;20051;-78
2024/02/03 01:15:15;;;;;;;9.85;3.70;;;;;;;11.92;100.00;101727.47;10534535;28;20487;-78
2024/02/03 01:20:37;;;;;;;6.95;3.85;;;;;;;11.75;100.00;101721.72;10561555;28;20131;-78
2024/02/03 01:26:00;;;;;;;9.25;3.83;;;;;;;11.69;100.00;101726.81;10570661;28;20051;-78
2024/02/03 01:31:24;;;;;;;5.85;3.35;;;;;;;11.55;100.00;101718.50;10574204;28;20056;-78
2024/02/03 01:36:47;;;;;;;6.68;3.90;;;;;;;11.47;100.00;101716.53;10560349;28;20423;-78
2024/02/03 01:42:09;;;;;;;6.07;3.50;;;;;;;11.41;100.00;101719.91;10569267;28;20048;-78
2024/02/03 01:47:34;;;;;;;6.60;3.65;;;;;;;11.37;100.00;101712.72;10558547;28;20051;-78
2024/02/03 01:52:56;;;;;;;8.00;4.07;;;;;;;11.40;100.00;101719.88;10546734;28;20043;-78
2024/02/03 01:58:21;;;;;;;7.63;4.05;;;;;;;11.26;100.00;101724.75;10560814;28;20495;-78
2024/02/03 02:03:45;;;;;;;6.90;3.42;;;;;;;11.18;100.00;101721.91;10523959;28;20412;-78
2024/02/03 02:09:08;;;;;;;12.52;5.50;;;;;;;11.37;100.00;101711.84;10559079;28;20055;-77
2024/02/03 02:14:31;;;;;;;8.93;4.10;;;;;;;11.42;100.00;101716.38;10597607;27;20051;-78
2024/02/03 02:20:05;;;;;;;7.00;3.65;;;;;;;11.51;100.00;101711.38;10622986;27;20059;-78
2024/02/03 02:25:28;;;;;;;8.70;4.05;;;;;;;11.58;100.00;101718.63;10602326;27;20042;-78
2024/02/03 02:30:51;;;;;;;8.57;3.55;;;;;;;11.76;100.00;101718.22;10593784;27;20054;-78
2024/02/03 02:36:15;;;;;;;18.48;5.75;;;;;;;11.93;100.00;101723.97;10628196;27;20439;-78
2024/02/03 02:41:38;;;;;;;7.47;4.53;;;;;;;11.98;100.00;101711.75;10614608;27;20499;-78
2024/02/03 02:47:01;;;;;;;9.18;5.10;;;;;;;12.07;100.00;101719.91;10613887;27;20047;-78
2024/02/03 02:52:25;;;;;;;9.02;4.82;;;;;;;12.18;100.00;101707.84;10609644;27;20091;-77
2024/02/03 02:57:48;;;;;;;10.02;5.32;;;;;;;12.16;100.00;101706.00;10598334;27;20402;-78
2024/02/03 03:03:10;;;;;;;11.40;8.48;;;;;;;12.09;100.00;101704.94;10599916;27;20047;-78
2024/02/03 03:08:34;;;;;;;9.57;4.90;;;;;;;12.28;100.00;101696.59;10625433;27;20071;-78
2024/02/03 03:13:58;;;;;;;8.00;5.05;;;;;;;12.74;100.00;101682.63;10609166;27;20051;-79
2024/02/03 03:19:23;;;;;;;10.25;4.63;;;;;;;13.09;100.00;101686.03;10643154;27;20390;-78
2024/02/03 03:24:48;;;;;;;16.65;7.75;;;;;;;13.39;100.00;101680.44;10631030;27;20074;-78
2024/02/03 03:30:11;;;;;;;7.95;4.90;;;;;;;13.58;100.00;101692.31;10603458;27;20071;-78
2024/02/03 03:35:33;;;;;;;6.97;4.40;;;;;;;13.68;100.00;101690.69;10629466;27;20043;-78
2024/02/03 03:40:57;;;;;;;7.53;4.18;;;;;;;13.73;100.00;101689.91;10630034;27;20150;-78
2024/02/03 03:46:21;;;;;;;12.18;4.90;;;;;;;13.87;100.00;101698.13;10609338;27;20118;-77
2024/02/03 03:51:43;;;;;;;10.40;3.83;;;;;;;14.06;100.00;101701.97;10593162;27;20051;-78
2024/02/03 03:57:07;;;;;;;5.45;3.88;;;;;;;14.04;100.00;101699.31;10593365;27;20469;-78
2024/02/03 04:02:30;;;;;;;7.05;3.90;;;;;;;13.99;100.00;101700.97;10608474;27;20043;-78
2024/02/03 04:07:52;;;;;;;9.38;4.40;;;;;;;13.92;100.00;101705.28;10594313;27;20058;-77
2024/02/03 04:13:16;;;;;;;7.45;4.07;;;;;;;13.88;100.00;101707.88;10577719;27;20104;-78
2024/02/03 04:18:39;;;;;;;8.48;4.50;;;;;;;14.05;100.00;101710.81;10605554;27;20047;-78
2024/02/03 04:24:01;;;;;;;8.02;4.68;;;;;;;14.18;100.00;101719.00;10574443;27;20043;-78
2024/02/03 04:29:25;;;;;;;5.85;4.05;;;;;;;13.89;100.00;101722.94;10613262;27;20090;-77
2024/02/03 04:34:48;;;;;;;12.52;5.28;;;;;;;13.27;100.00;101720.00;10598950;27;20043;-78
2024/02/03 04:40:11;;;;;;;8.77;4.72;;;;;;;13.04;100.00;101723.91;10603118;27;20185;-78
2024/02/03 04:45:35;;;;;;;6.72;4.40;;;;;;;13.02;100.00;101728.28;10610374;27;20084;-78
2024/02/03 04:50:58;;;;;;;12.32;4.57;;;;;;;13.03;100.00;101727.41;10597988;27;20053;-78
2024/02/03 04:56:20;;;;;;;9.05;5.30;;;;;;;13.19;100.00;101729.56;10595966;27;20740;-77
2024/02/03 05:01:44;;;;;;;9.10;4.72;;;;;;;13.43;100.00;101739.75;10617203;27;20051;-77
2024/02/03 05:07:07;;;;;;;11.63;5.32;;;;;;;13.52;100.00;101740.81;10602940;27;20039;-77
2024/02/03 05:12:31;;;;;;;8.90;5.20;;;;;;;13.38;100.00;101749.41;10618704;27;20050;-79
2024/02/03 05:17:55;;;;;;;8.98;5.30;;;;;;;13.30;100.00;101759.84;10580313;27;20089;-77
2024/02/03 05:23:18;;;;;;;10.82;4.68;;;;;;;13.22;100.00;101756.13;10561232;27;20328;-78
2024/02/03 05:28:40;;;;;;;12.48;4.50;;;;;;;13.27;100.00;101758.88;10592266;27;20078;-78
2024/02/03 05:34:04;;;;;;;9.18;5.18;;;;;;;13.37;100.00;101764.41;10602150;27;20047;-77
2024/02/03 05:39:26;;;;;;;13.60;4.82;;;;;;;13.48;100.00;101770.81;10583644;27;20071;-77
2024/02/03 05:44:49;;;;;;;12.93;4.43;;;;;;;13.80;100.00;101773.19;10581462;27;20054;-77
2024/02/03 05:50:13;;;;;;;12.43;4.55;;;;;;;14.07;100.00;101772.78;10583866;27;20043;-77
2024/02/03 05:55:36;;;;;;;9.45;5.05;;;;;;;14.02;100.00;101780.69;10567425;27;20046;-77
2024/02/03 06:00:58;;;;;;;17.75;9.52;;;;;;;14.15;100.00;101779.16;10583584;27;20040;-77
2024/02/03 06:06:22;;;;;;;9.30;6.63;;;;;;;14.43;97.56;101786.75;10577241;27;20055;-77
2024/02/03 06:11:45;;;;;;;15.45;7.35;;;;;;;14.56;97.68;101795.81;10597827;27;20067;-77
2024/02/03 06:17:08;;;;;;;12.38;8.50;;;;;;;14.79;97.32;101798.81;10570681;27;20043;-78
2024/02/03 06:22:32;;;;;;;16.45;10.52;;;;;;;14.80;98.21;101805.91;10586537;27;20035;-77
2024/02/03 06:27:54;;;;;;;10.43;7.05;;;;;;;15.22;96.73;101802.97;10552300;28;20036;-77
2024/02/03 06:33:17;;;;;;;9.38;8.00;;;;;;;15.59;93.15;101801.69;10586395;28;20043;-77
2024/02/03 06:38:41;;;;;;;15.18;9.48;;;;;;;15.67;90.51;101808.00;10571101;28;20052;-77
2024/02/03 06:44:04;;;;;;;11.02;7.30;;;;;;;15.49;90.63;101814.00;10545561;28;20046;-77
2024/02/03 06:49:26;;;;;;;12.25;8.48;;;;;;;15.17;92.08;101810.88;10559677;27;20403;-77
2024/02/03 06:54:50;;;;;;;13.18;7.60;;;;;;;15.48;90.15;101822.84;10590154;27;20107;-77
2024/02/03 07:00:14;;;;;;;13.63;9.32;;;;;;;15.53;87.81;101823.81;10582851;27;20053;-77
2024/02/03 07:05:39;;;;;;;27.38;17.40;;;;;;;15.79;87.93;101819.69;10564830;27;20051;-77
2024/02/03 07:11:03;;;;;;;16.55;9.07;;;;;;;19.13;63.72;101816.78;10573747;27;20031;-77
2024/02/03 07:16:26;;;;;;;12.60;8.30;;;;;;;18.77;58.20;101823.13;10587121;27;20065;-77
2024/02/03 07:21:48;;;;;;;10.27;7.97;;;;;;;20.58;53.04;101823.19;10583514;27;20407;-77
2024/02/03 07:27:12;;;;;;;12.57;7.47;;;;;;;19.47;55.03;101813.16;10573789;27;20082;-77
2024/02/03 07:32:35;;;;;;;7.97;6.90;;;;;;;18.25;58.00;101823.94;10552141;28;20372;-78
2024/02/03 07:37:57;;;;;;;10.63;5.13;;;;;;;18.53;56.80;101827.53;10536004;27;20586;-78
2024/02/03 07:43:37;;;;;;;12.50;7.72;;;;;;;18.37;59.19;101848.94;10569147;27;20396;-78
2024/02/03 07:49:00;;;;;;;12.77;8.30;;;;;;;17.91;60.70;101841.72;10551395;27;20542;-78
2024/02/03 07:54:22;;;;;;;8.95;7.38;;;;;;;17.39;63.98;101839.72;10584223;27;20051;-77
2024/02/03 07:59:46;;;;;;;10.52;9.38;;;;;;;17.53;67.07;101836.19;10540122;27;20092;-77
2024/02/03 08:05:09;;;;;;;8.30;5.88;;;;;;;20.21;51.01;101857.44;10577531;27;20517;-77
2024/02/03 08:10:31;;;;;;;9.25;7.53;;;;;;;19.44;54.49;101862.22;10581551;27;20058;-77
2024/02/03 08:15:55;;;;;;;11.07;6.75;;;;;;;20.81;48.55;101863.25;10582189;27;20519;-77
2024/02/03 08:21:18;;;;;;;44.00;27.55;;;;;;;19.43;51.22;101879.19;10577641;27;20051;-78
2024/02/03 08:26:40;;;;;;;58.00;31.85;;;;;;;19.85;50.76;101879.97;10573515;27;20051;-78
2024/02/03 08:32:04;;;;;;;14.95;13.35;;;;;;;18.58;55.15;101879.28;10586070;27;20480;-78
2024/02/03 08:37:27;;;;;;;10.13;6.03;;;;;;;18.35;55.72;101878.34;10584755;27;20400;-77
2024/02/03 08:42:49;;;;;;;11.02;7.00;;;;;;;17.68;58.10;101888.81;10557619;28;20047;-76
2024/02/03 08:48:13;;;;;;;15.05;7.30;;;;;;;19.57;53.22;101876.50;10574653;27;20456;-77
2024/02/03 08:53:36;;;;;;;9.48;5.10;;;;;;;21.12;47.22;101877.28;10590031;27;20044;-75
2024/02/03 08:58:58;;;;;;;9.20;4.88;;;;;;;22.24;42.83;101881.34;10557716;27;20100;-77
2024/02/03 09:04:22;;;;;;;8.85;5.07;;;;;;;20.80;46.39;101888.31;10561950;27;20043;-77
2024/02/03 09:09:45;;;;;;;11.05;5.10;;;;;;;19.77;50.17;101888.03;10579341;27;20148;-75
2024/02/03 09:15:08;;;;;;;10.23;5.65;;;;;;;19.28;52.01;101881.91;10562509;27;20053;-75
2024/02/03 09:20:32;;;;;;;9.60;5.43;;;;;;;20.98;49.43;101872.06;10587394;27;20128;-76
2024/02/03 09:25:55;;;;;;;9.45;5.50;;;;;;;23.96;41.46;101880.97;10569910;27;20032;-78
2024/02/03 09:31:19;;;;;;;10.60;6.05;;;;;;;21.28;43.83;101879.81;10587401;27;20039;-79
2024/02/03 09:36:43;;;;;;;10.15;6.30;;;;;;;19.98;47.73;101880.78;10602892;27;20054;-78
2024/02/03 09:42:06;;;;;;;12.60;5.60;;;;;;;23.20;40.67;101880.66;10588748;27;20036;-77
2024/02/03 09:47:29;;;;;;;10.15;5.22;;;;;;;25.17;36.87;101878.03;10587424;27;20043;-77
2024/02/03 09:52:56;;;;;;;10.13;5.47;;;;;;;26.21;35.29;101875.91;10577144;27;20046;-77
2024/02/03 09:58:19;;;;;;;10.30;4.30;;;;;;;24.84;36.05;101859.97;10581831;27;20079;-75
2024/02/03 10:03:46;;;;;;;7.07;4.50;;;;;;;24.90;34.93;101855.31;10574601;27;20435;-74
2024/02/03 10:09:11;;;;;;;7.45;4.45;;;;;;;25.36;34.67;101857.66;10585142;27;20058;-74
2024/02/03 10:14:33;;;;;;;10.60;5.85;;;;;;;22.61;38.70;101857.44;10575716;27;20051;-73
2024/02/03 10:19:56;;;;;;;16.58;5.88;;;;;;;21.41;41.52;101859.97;10585301;27;20039;-75
2024/02/03 10:25:24;;;;;;;11.10;5.70;;;;;;;22.28;40.53;101848.09;10585675;27;20050;-78
2024/02/03 10:30:47;;;;;;;5.30;4.07;;;;;;;20.61;42.83;101839.28;10586323;28;20051;-80
2024/02/03 10:36:09;;;;;;;9.82;5.53;;;;;;;20.26;43.76;101842.19;10572661;28;20040;-79
2024/02/03 10:41:36;;;;;;;9.73;6.60;;;;;;;22.83;40.35;101831.97;10599310;28;20043;-76
2024/02/03 10:47:01;;;;;;;11.65;5.75;;;;;;;23.66;38.43;101820.47;10598583;28;20049;-74
2024/02/03 10:52:26;;;;;;;9.23;6.57;;;;;;;23.95;37.77;101826.13;10578840;28;20145;-77
2024/02/03 10:57:52;;;;;;;6.63;5.60;;;;;;;22.84;39.55;101824.78;10577386;28;20625;-77
2024/02/03 11:03:15;;;;;;;10.38;5.63;;;;;;;21.83;41.68;101820.03;10581786;28;20100;-77
2024/02/03 11:08:37;;;;;;;8.48;5.60;;;;;;;21.93;41.63;101810.00;10582404;28;20055;-74
2024/02/03 11:14:03;;;;;;;8.15;5.40;;;;;;;22.61;40.50;101814.34;10558963;28;20506;-77
2024/02/03 11:19:30;;;;;;;10.82;6.82;;;;;;;24.39;37.54;101805.31;10599822;28;20414;-76
2024/02/03 11:24:53;;;;;;;6.27;4.80;;;;;;;22.66;38.72;101817.84;10573169;27;20071;-76
2024/02/03 11:30:18;;;;;;;11.80;6.70;;;;;;;23.58;38.76;101815.22;10588290;28;20498;-76
2024/02/03 11:35:43;;;;;;;9.05;7.05;;;;;;;24.50;37.12;101808.63;10592204;27;20043;-76
2024/02/03 11:41:06;;;;;;;10.13;5.85;;;;;;;22.90;39.76;101809.38;10597237;27;20050;-75
2024/02/03 11:46:30;;;;;;;15.70;7.53;;;;;;;23.11;40.10;101807.19;10613184;27;20039;-78
2024/02/03 11:52:00;;;;;;;13.30;7.78;;;;;;;22.42;41.36;101808.41;10588666;27;20047;-77
2024/02/03 11:57:25;;;;;;;10.18;6.28;;;;;;;20.99;43.75;101810.28;10566963;27;20094;-78
2024/02/03 12:02:50;;;;;;;13.88;6.30;;;;;;;20.53;45.55;101809.84;10590926;27;20055;-77
2024/02/03 12:08:12;;;;;;;7.60;6.20;;;;;;;20.19;46.14;101819.00;10590952;27;20096;-77
2024/02/03 12:13:37;;;;;;;15.57;8.88;;;;;;;19.61;47.35;101819.34;10589452;27;20043;-76
2024/02/03 12:19:01;;;;;;;10.48;6.93;;;;;;;19.96;47.52;101824.50;10588737;27;20043;-76
2024/02/03 12:24:24;;;;;;;15.60;9.27;;;;;;;20.09;47.83;101817.25;10591824;27;20384;-78
2024/02/03 12:29:47;;;;;;;7.38;5.55;;;;;;;20.05;47.40;101815.50;10575636;27;20085;-84
2024/02/03 12:35:12;;;;;;;8.07;5.63;;;;;;;19.76;46.84;101821.94;10600452;27;20043;-81
2024/02/03 12:40:35;;;;;;;35.22;14.40;;;;;;;19.18;47.99;101823.03;10590093;27;20676;-77
2024/02/03 12:45:57;;;;;;;11.60;8.25;;;;;;;19.11;49.06;101830.19;10572806;27;20051;-78
2024/02/03 12:51:21;;;;;;;11.07;7.55;;;;;;;19.18;48.78;101825.69;10582644;27;20074;-78
2024/02/03 12:56:43;;;;;;;12.68;5.82;;;;;;;19.29;49.01;101827.47;10610697;27;20525;-78
2024/02/03 13:02:06;;;;;;;11.25;7.97;;;;;;;18.89;49.75;101824.00;10577558;27;20506;-75
2024/02/03 13:07:31;;;;;;;10.65;7.60;;;;;;;18.41;51.22;101834.66;10586558;27;20047;-76
2024/02/03 13:12:53;;;;;;;8.48;6.78;;;;;;;18.02;53.03;101833.72;10587325;27;20043;-77
2024/02/03 13:18:16;;;;;;;11.60;7.38;;;;;;;18.13;52.85;101834.63;10537769;27;20054;-77
2024/02/03 13:23:40;;;;;;;8.88;7.22;;;;;;;18.38;50.64;101832.88;10558404;28;20066;-77
2024/02/03 13:29:02;;;;;;;12.40;8.50;;;;;;;18.61;50.48;101838.28;10560578;28;20052;-78
2024/02/03 13:34:25;;;;;;;11.52;5.75;;;;;;;18.25;52.03;101829.28;10572988;28;20055;-78
2024/02/03 13:39:49;;;;;;;9.93;6.50;;;;;;;18.24;53.86;101838.22;10511586;28;20106;-78
2024/02/03 13:45:12;;;;;;;10.00;7.43;;;;;;;18.33;53.40;101835.56;10509757;28;20067;-77
2024/02/03 13:50:34;;;;;;;11.23;9.02;;;;;;;18.15;54.22;101832.88;10513502;28;20163;-77
2024/02/03 13:56:00;;;;;;;8.93;6.97;;;;;;;18.00;54.58;101837.28;10545541;28;20403;-77
2024/02/03 14:01:24;;;;;;;10.77;7.90;;;;;;;17.73;56.65;101838.97;10547333;28;20555;-78
2024/02/03 14:06:46;;;;;;;10.82;6.78;;;;;;;17.77;57.93;101830.09;10542260;28;20054;-76
2024/02/03 14:12:11;;;;;;;9.65;7.57;;;;;;;17.72;59.21;101830.97;10523154;27;20079;-77
2024/02/03 14:17:33;;;;;;;9.77;7.85;;;;;;;17.35;60.95;101840.56;10549751;27;20510;-78
2024/02/03 14:22:56;;;;;;;10.57;7.70;;;;;;;17.09;60.86;101848.41;10579505;27;20058;-74
2024/02/03 14:28:23;;;;;;;31.98;22.45;;;;;;;16.82;58.96;101856.22;10589303;27;20607;-77
2024/02/03 14:33:48;;;;;;;13.70;9.73;;;;;;;16.56;57.16;101862.19;10597165;27;20521;-75
2024/02/03 14:39:11;;;;;;;12.20;9.18;;;;;;;16.22;57.17;101858.31;10582437;28;20142;-77
2024/02/03 14:44:36;;;;;;;7.82;6.32;;;;;;;15.98;58.65;101862.50;10584996;28;20043;-77
2024/02/03 14:49:59;;;;;;;11.15;8.80;;;;;;;15.91;59.89;101862.44;10583756;28;20416;-77
2024/02/03 14:55:21;;;;;;;13.52;10.98;;;;;;;16.13;57.73;101876.00;10589061;28;20062;-75
2024/02/03 15:00:45;;;;;;;14.65;10.90;;;;;;;16.11;57.68;101869.75;10597930;28;20111;-75
2024/02/03 15:06:08;;;;;;;7.93;6.60;;;;;;;16.11;57.80;101875.97;10606112;27;20429;-77
2024/02/03 15:11:31;;;;;;;14.07;10.20;;;;;;;15.95;58.98;101880.22;10564057;27;20047;-77
2024/02/03 15:16:55;;;;;;;9.43;7.07;;;;;;;15.82;61.36;101877.41;10588015;27;20048;-77
2024/02/03 15:22:17;;;;;;;12.07;7.03;;;;;;;15.84;61.78;101880.97;10587771;27;20051;-75
2024/02/03 15:27:40;;;;;;;10.32;6.65;;;;;;;15.82;62.19;101885.38;10587256;27;20546;-77
2024/02/03 15:33:05;;;;;;;12.13;9.07;;;;;;;15.76;63.68;101885.31;10605097;27;20441;-76
2024/02/03 15:38:27;;;;;;;13.63;9.13;;;;;;;15.61;65.06;101891.38;10587447;27;20074;-75
2024/02/03 15:43:51;;;;;;;13.63;10.02;;;;;;;15.52;65.43;101888.53;10587665;27;20042;-76
2024/02/03 15:49:15;;;;;;;13.90;9.15;;;;;;;15.40;66.58;101896.34;10589502;27;20047;-75
2024/02/03 15:54:37;;;;;;;15.70;10.65;;;;;;;15.31;68.47;101906.84;10583913;27;20043;-75
2024/02/03 16:00:00;;;;;;;14.55;10.60;;;;;;;15.26;69.39;101897.91;10600436;27;20042;-75
2024/02/03 16:05:24;;;;;;;15.05;10.57;;;;;;;15.21;71.15;101904.94;10601594;27;20047;-76
2024/02/03 16:10:47;;;;;;;18.50;10.85;;;;;;;15.24;71.31;101903.22;10597470;27;20049;-77
2024/02/03 16:16:10;;;;;;;10.65;8.00;;;;;;;15.21;73.57;101904.94;10581158;27;20595;-75
2024/02/03 16:21:34;;;;;;;17.05;7.35;;;;;;;15.24;76.12;101912.94;10568957;28;20399;-76
2024/02/03 16:26:59;;;;;;;15.82;8.85;;;;;;;15.32;79.39;101921.94;10556898;28;20040;-76
2024/02/03 16:32:21;;;;;;;32.67;17.00;;;;;;;15.22;83.55;101926.25;10556839;28;20047;-74
2024/02/03 16:37:45;;;;;;;14.05;8.30;;;;;;;14.87;87.31;101940.75;10569030;28;20142;-76
2024/02/03 16:43:08;;;;;;;13.32;9.80;;;;;;;14.39;92.45;101943.41;10559208;28;21258;-76
2024/02/03 16:48:31;;;;;;;23.95;19.77;;;;;;;14.27;94.79;101952.00;10543245;28;20153;-75
2024/02/03 16:53:54;;;;;;;15.25;11.90;;;;;;;14.44;93.80;101957.69;10558761;28;20035;-74
2024/02/03 16:59:17;;;;;;;16.70;13.20;;;;;;;14.57;92.40;101962.38;10565509;28;20051;-75
2024/02/03 17:04:42;;;;;;;16.40;8.68;;;;;;;14.50;92.54;101956.03;10553421;28;20080;-76
2024/02/03 17:10:09;;;;;;;43.67;21.90;;;;;;;14.47;92.80;101958.63;10548700;28;20032;-76
2024/02/03 17:15:34;;;;;;;14.93;10.73;;;;;;;14.47;92.36;101976.34;10567013;28;20336;-77
2024/02/03 17:20:57;;;;;;;16.75;11.93;;;;;;;14.45;92.27;101976.28;10543334;28;20104;-77
2024/02/03 17:26:21;;;;;;;15.25;12.70;;;;;;;14.28;94.01;101975.03;10559706;28;20055;-78
2024/02/03 17:31:43;;;;;;;10.57;9.18;;;;;;;14.21;94.49;101982.00;10560094;28;20124;-78
2024/02/03 17:37:07;;;;;;;14.65;10.68;;;;;;;14.36;92.79;101979.66;10541333;28;20048;-77
2024/02/03 17:42:31;;;;;;;11.38;9.90;;;;;;;14.41;90.70;101987.75;10560303;28;20179;-78
2024/02/03 17:47:53;;;;;;;11.10;9.00;;;;;;;14.30;89.97;101991.91;10548637;28;20052;-77
2024/02/03 17:53:16;;;;;;;14.48;10.82;;;;;;;13.92;92.79;101996.41;10555864;28;20456;-77
2024/02/03 17:58:41;;;;;;;11.75;9.07;;;;;;;13.81;93.94;101992.63;10536106;28;20058;-77
2024/02/03 18:04:03;;;;;;;13.10;10.68;;;;;;;13.97;92.47;102000.09;10556204;28;20081;-76
2024/02/03 18:09:26;;;;;;;20.25;16.42;;;;;;;14.08;90.50;101998.53;10571780;28;20047;-76
2024/02/03 18:14:50;;;;;;;23.42;15.38;;;;;;;14.18;90.44;102004.91;10545349;27;20074;-76
2024/02/03 18:20:13;;;;;;;18.48;13.55;;;;;;;14.26;89.76;101993.59;10537822;28;20551;-76
2024/02/03 18:25:35;;;;;;;22.13;13.60;;;;;;;14.19;90.89;102001.41;10525785;28;20405;-77
2024/02/03 18:31:00;;;;;;;40.97;21.33;;;;;;;14.12;92.22;102005.69;10537388;28;20602;-78
2024/02/03 18:36:23;;;;;;;24.17;16.23;;;;;;;13.98;93.67;102010.72;10535862;28;20075;-78
2024/02/03 18:41:45;;;;;;;23.42;16.15;;;;;;;13.69;96.25;102017.16;10534618;27;20114;-77
2024/02/03 18:47:09;;;;;;;35.47;23.25;;;;;;;13.61;97.35;102012.50;10561787;27;20055;-77
2024/02/03 18:52:32;;;;;;;28.05;18.45;;;;;;;13.60;97.58;102010.72;10552165;27;20079;-76
2024/02/03 18:57:54;;;;;;;31.13;22.38;;;;;;;13.52;98.44;102008.78;10562429;27;20131;-77
2024/02/03 19:03:18;;;;;;;35.03;25.60;;;;;;;13.40;99.57;102012.88;10550391;27;20423;-78
2024/02/03 19:08:41;;;;;;;36.83;24.80;;;;;;;13.27;100.00;102014.34;10540433;27;20044;-75
2024/02/03 19:14:04;;;;;;;26.50;17.65;;;;;;;13.21;100.00;102015.94;10551314;27;20048;-78
2024/02/03 19:19:28;;;;;;;16.80;12.15;;;;;;;13.14;100.00;102018.44;10539085;27;20511;-77
2024/02/03 19:24:51;;;;;;;11.75;10.02;;;;;;;13.10;100.00;102020.97;10550484;27;20059;-77
2024/02/03 19:30:15;;;;;;;19.38;13.25;;;;;;;13.09;100.00;102012.13;10549278;27;20048;-79
2024/02/03 19:35:39;;;;;;;11.85;8.57;;;;;;;12.89;100.00;102020.41;10537695;28;20047;-76
2024/02/03 19:41:01;;;;;;;14.70;11.90;;;;;;;12.88;100.00;102022.16;10543008;28;20084;-76
2024/02/03 19:46:24;;;;;;;17.52;12.20;;;;;;;12.94;100.00;102019.66;10553209;28;20120;-76
2024/02/03 19:51:48;;;;;;;34.20;23.15;;;;;;;12.66;100.00;102020.69;10547363;28;20404;-75
2024/02/03 19:57:11;;;;;;;10.73;7.93;;;;;;;12.60;100.00;102027.59;10557246;27;20059;-76
2024/02/03 20:02:34;;;;;;;16.13;12.00;;;;;;;12.36;100.00;102033.97;10527092;27;20044;-76
2024/02/03 20:07:59;;;;;;;21.08;15.32;;;;;;;12.15;100.00;102030.69;10522117;27;20059;-76
2024/02/03 20:13:25;;;;;;;16.42;12.35;;;;;;;12.17;100.00;102021.06;10536731;27;20043;-75
2024/02/03 20:18:47;;;;;;;24.60;16.42;;;;;;;12.16;100.00;102021.91;10583532;27;20595;-75
2024/02/03 20:24:12;;;;;;;17.08;12.38;;;;;;;12.04;100.00;102023.28;10611626;27;20047;-75
2024/02/03 20:29:35;;;;;;;13.35;10.40;;;;;;;12.04;100.00;102018.91;10602334;27;20084;-75
2024/02/03 20:34:58;;;;;;;12.60;9.48;;;;;;;11.96;100.00;102021.31;10602086;27;20146;-75
2024/02/03 20:40:22;;;;;;;12.13;9.70;;;;;;;11.89;100.00;102016.69;10598070;27;20047;-76
2024/02/03 20:45:46;;;;;;;11.85;8.00;;;;;;;11.86;100.00;102016.59;10594674;27;20135;-76
2024/02/03 20:51:11;;;;;;;12.93;9.15;;;;;;;11.88;100.00;102014.00;10598792;27;20620;-75
2024/02/03 20:56:36;;;;;;;18.65;11.90;;;;;;;11.88;100.00;102017.53;10591096;27;20047;-75
2024/02/03 21:02:00;;;;;;;21.48;15.10;;;;;;;11.93;100.00;102017.69;10589625;27;20047;-76
2024/02/03 21:07:23;;;;;;;63.25;42.55;;;;;;;12.14;100.00;102023.59;10547606;28;20075;-75
2024/02/03 21:12:47;;;;;;;14.35;11.40;;;;;;;12.28;100.00;102026.66;10581144;27;20051;-76
2024/02/03 21:18:09;;;;;;;12.68;9.57;;;;;;;12.24;100.00;102027.44;10566928;27;20055;-76
2024/02/03 21:23:32;;;;;;;15.45;8.10;;;;;;;11.92;100.00;102018.53;10560683;28;20051;-76
2024/02/03 21:28:56;;;;;;;10.20;7.95;;;;;;;11.89;100.00;102019.31;10545337;27;20177;-75
2024/02/03 21:34:18;;;;;;;10.73;8.73;;;;;;;11.54;100.00;102022.59;10556804;28;20051;-75
2024/02/03 21:39:43;;;;;;;14.52;8.80;;;;;;;11.36;100.00;102019.34;10545724;28;20048;-76
2024/02/03 21:45:08;;;;;;;28.75;17.35;;;;;;;11.36;100.00;102019.34;10569443;27;20066;-75
2024/02/03 21:50:32;;;;;;;10.88;8.40;;;;;;;11.44;100.00;102012.56;10565797;28;20051;-76
2024/02/03 21:55:55;;;;;;;14.80;12.73;;;;;;;11.64;100.00;102000.88;10571771;28;20036;-76
2024/02/03 22:01:20;;;;;;;11.75;9.80;;;;;;;11.71;100.00;102002.88;10559365;28;20117;-74
2024/02/03 22:06:43;;;;;;;10.07;7.97;;;;;;;11.72;100.00;102003.75;10558972;28;20031;-74
2024/02/03 22:12:05;;;;;;;27.35;19.98;;;;;;;11.45;100.00;102003.78;10593857;27;20613;-75
2024/02/03 22:17:30;;;;;;;10.85;8.55;;;;;;;11.17;100.00;102007.28;10628288;27;20045;-75
2024/02/03 22:22:53;;;;;;;12.10;7.53;;;;;;;11.02;100.00;102004.16;10632038;27;20483;-75
2024/02/03 22:28:15;;;;;;;12.40;8.07;;;;;;;10.69;100.00;101995.97;10613164;27;20116;-75
2024/02/03 22:33:39;;;;;;;11.50;7.80;;;;;;;11.02;100.00;101997.13;10618638;27;20045;-75
2024/02/03 22:39:01;;;;;;;10.05;8.20;;;;;;;10.75;100.00;101993.53;10597115;28;20051;-75
2024/02/03 22:44:24;;;;;;;14.98;8.52;;;;;;;10.67;100.00;101989.72;10626367;27;20402;-75
2024/02/03 22:49:48;;;;;;;14.52;8.82;;;;;;;10.57;100.00;101980.56;10590429;27;20075;-75
2024/02/03 22:55:10;;;;;;;12.20;9.25;;;;;;;10.54;100.00;101988.41;10621212;27;20444;-75
2024/02/03 23:00:36;;;;;;;15.02;10.90;;;;;;;10.59;100.00;101986.81;10588526;27;20521;-75
2024/02/03 23:06:00;;;;;;;15.00;11.98;;;;;;;10.50;100.00;101980.31;10589340;27;20047;-75
2024/02/03 23:11:23;;;;;;;12.00;9.30;;;;;;;10.47;100.00;101978.47;10607304;27;20063;-75
2024/02/03 23:16:45;;;;;;;10.40;7.80;;;;;;;10.69;100.00;101982.75;10616093;27;20051;-75
2024/02/03 23:22:09;;;;;;;10.30;7.82;;;;;;;10.61;100.00;101982.50;10608906;27;20107;-76
2024/02/03 23:27:32;;;;;;;11.88;7.85;;;;;;;10.45;100.00;101982.78;10605176;27;20039;-75
2024/02/03 23:32:54;;;;;;;10.32;8.00;;;;;;;10.74;100.00;101981.16;10615224;27;20078;-76
2024/02/03 23:38:18;;;;;;;16.45;11.30;;;;;;;10.92;100.00;101980.88;10631104;27;20043;-75
2024/02/03 23:43:43;;;;;;;16.08;11.30;;;;;;;10.94;100.00;101985.38;10649217;27;20043;-74
2024/02/03 23:49:05;;;;;;;12.43;8.63;;;;;;;10.88;100.00;101986.94;10623655;27;20534;-75
2024/02/03 23:54:29;;;;;;;11.48;8.18;;;;;;;10.95;100.00;101981.00;10608719;27;20178;-75
2024/02/03 23:59:52;;;;;;;16.08;10.52;;;;;;;11.31;100.00;101981.28;10627256;27;20074;-75
